Time;durP1;ratioP1;P1;durP2;ratioP2;P2;SDS_P1;SDS_P2;PMS_P1;PMS_P2;Temp;Humidity;BMP_temperature;BMP_pressure;BME280_temperature;BME280_humidity;BME280_pressure;Samples;Min_cycle;Max_cycle;Signal;HPM_P1;HPM_P2
2021/12/24 00:00:09;;;;;;;59.97;24.10;;;6.20;99.90;;;;;;4974778;28;20042;-64
2021/12/24 00:02:35;;;;;;;51.63;24.17;;;6.30;99.90;;;;;;4976338;28;20039;-63
2021/12/24 00:05:01;;;;;;;59.95;25.63;;;;;;;;;;4959230;28;20043;-63
2021/12/24 00:07:27;;;;;;;54.28;23.48;;;6.30;99.90;;;;;;4980191;28;20562;-64
2021/12/24 00:09:53;;;;;;;55.50;23.80;;;6.40;99.90;;;;;;4978528;28;20034;-63
2021/12/24 00:12:20;;;;;;;45.85;21.35;;;6.30;99.90;;;;;;4979031;28;20133;-64
2021/12/24 00:14:51;;;;;;;46.13;21.00;;;6.30;99.90;;;;;;4995776;28;20042;-63
2021/12/24 00:17:23;;;;;;;49.40;21.75;;;6.30;99.90;;;;;;4995709;28;20400;-64
2021/12/24 00:20:06;;;;;;;43.20;19.88;;;6.60;99.90;;;;;;4962099;28;20037;-63
2021/12/24 00:36:06;;;;;;;45.05;19.02;;;6.60;99.90;;;;;;4977976;28;20050;-64
2021/12/24 00:38:31;;;;;;;36.63;17.02;;;6.70;99.90;;;;;;4995412;28;20440;-63
2021/12/24 00:40:57;;;;;;;39.08;18.98;;;;;;;;;;4995096;28;20038;-63
2021/12/24 00:43:24;;;;;;;27.67;14.75;;;6.70;99.90;;;;;;4978629;28;20121;-64
2021/12/24 00:45:50;;;;;;;37.03;16.75;;;6.70;99.90;;;;;;4979417;28;20452;-64
2021/12/24 00:48:17;;;;;;;30.58;14.07;;;6.50;99.90;;;;;;4978280;28;20096;-64
2021/12/24 00:55:57;;;;;;;34.63;15.77;;;6.70;99.90;;;;;;4978321;28;20592;-63
2021/12/24 00:58:23;;;;;;;27.50;13.18;;;;;;;;;;4978744;28;20125;-64
2021/12/24 01:00:49;;;;;;;23.63;12.65;;;;;;;;;;4978412;28;20042;-64
2021/12/24 01:03:14;;;;;;;20.02;10.70;;;6.90;99.90;;;;;;4977121;28;20049;-63
2021/12/24 01:05:41;;;;;;;24.67;12.63;;;6.80;99.90;;;;;;4962274;28;20121;-63
2021/12/24 01:08:09;;;;;;;17.10;9.80;;;6.90;99.90;;;;;;4978268;28;20055;-64
2021/12/24 01:10:38;;;;;;;20.67;11.35;;;7.00;99.90;;;;;;4978813;28;20392;-64
2021/12/24 01:13:05;;;;;;;23.05;11.80;;;6.90;99.90;;;;;;4977848;28;20045;-64
2021/12/24 01:15:32;;;;;;;17.92;10.32;;;7.00;99.90;;;;;;4995556;28;20038;-64
2021/12/24 01:18:07;;;;;;;22.52;11.90;;;6.90;99.90;;;;;;4962307;28;20042;-64
2021/12/24 01:25:52;;;;;;;17.52;9.95;;;7.00;99.90;;;;;;4977849;28;20531;-64
2021/12/24 01:39:41;;;;;;;18.13;9.18;;;7.20;99.90;;;;;;4978399;28;20523;-63
2021/12/24 01:44:53;;;;;;;14.20;7.88;;;7.20;99.90;;;;;;4977761;28;20508;-64
2021/12/24 01:47:19;;;;;;;12.48;7.60;;;7.10;99.90;;;;;;4977484;28;20042;-64
2021/12/24 01:49:44;;;;;;;12.95;7.72;;;7.30;99.90;;;;;;4961575;28;20526;-64
2021/12/24 01:52:10;;;;;;;12.68;8.15;;;7.00;99.90;;;;;;4995291;28;20372;-64
2021/12/24 01:54:36;;;;;;;16.33;8.45;;;7.20;99.90;;;;;;4977670;28;20049;-64
2021/12/24 01:57:03;;;;;;;12.95;7.45;;;7.40;99.90;;;;;;4977739;28;20039;-64
2021/12/24 01:59:29;;;;;;;13.98;7.68;;;7.30;99.90;;;;;;4961970;28;20404;-64
2021/12/24 02:01:55;;;;;;;14.00;8.32;;;7.30;99.90;;;;;;4995355;28;20048;-64
2021/12/24 02:04:21;;;;;;;18.40;9.18;;;7.30;99.90;;;;;;4961361;28;20050;-64
2021/12/24 02:06:47;;;;;;;14.98;8.10;;;7.40;99.90;;;;;;4960781;28;20046;-64
2021/12/24 02:09:14;;;;;;;20.60;10.02;;;7.30;99.90;;;;;;4978160;28;20389;-64
2021/12/24 02:11:41;;;;;;;13.73;7.88;;;7.40;99.90;;;;;;4977177;28;20137;-64
2021/12/24 02:14:17;;;;;;;18.40;9.18;;;7.30;99.90;;;;;;4978466;28;20042;-64
2021/12/24 02:17:17;;;;;;;12.35;7.95;;;7.40;99.90;;;;;;4981639;28;20101;-64
2021/12/24 02:30:40;;;;;;;9.27;6.65;;;7.50;99.90;;;;;;4996420;28;20042;-64
2021/12/24 02:33:05;;;;;;;10.88;7.40;;;7.50;99.90;;;;;;4997900;28;20046;-64
2021/12/24 02:35:32;;;;;;;12.82;7.85;;;7.60;99.90;;;;;;4963761;28;20112;-64
2021/12/24 02:37:58;;;;;;;13.40;8.57;;;;;;;;;;4997961;28;20053;-64
2021/12/24 02:40:25;;;;;;;15.55;8.63;;;7.60;99.90;;;;;;4964543;28;20128;-64
2021/12/24 02:42:54;;;;;;;13.15;7.93;;;;;;;;;;4981043;28;20523;-64
2021/12/24 02:45:21;;;;;;;16.33;8.60;;;7.60;99.90;;;;;;4998165;28;20043;-64
2021/12/24 02:55:59;;;;;;;37.35;14.05;;;8.00;99.90;;;;;;4997677;28;20046;-64
2021/12/24 02:58:24;;;;;;;32.97;13.60;;;8.10;99.90;;;;;;4997560;28;20030;-64
2021/12/24 03:00:50;;;;;;;35.03;13.48;;;8.10;99.90;;;;;;4980093;28;20042;-64
2021/12/24 03:03:16;;;;;;;30.50;13.05;;;8.10;99.90;;;;;;4980097;28;20041;-64
2021/12/24 03:05:41;;;;;;;39.53;14.15;;;8.20;99.90;;;;;;4979599;28;20053;-64
2021/12/24 03:08:07;;;;;;;34.83;14.45;;;8.10;99.90;;;;;;4979069;28;20054;-64
2021/12/24 03:10:35;;;;;;;40.85;14.40;;;8.30;99.90;;;;;;4997494;28;20118;-64
2021/12/24 03:13:02;;;;;;;29.85;12.00;;;8.10;99.90;;;;;;4979892;28;20046;-64
2021/12/24 03:15:28;;;;;;;40.15;15.13;;;8.30;99.90;;;;;;4964449;28;20034;-64
2021/12/24 03:17:57;;;;;;;39.45;15.57;;;8.30;99.90;;;;;;4997461;28;20459;-65
2021/12/24 03:20:24;;;;;;;44.90;15.05;;;;;;;;;;4980537;28;20038;-64
2021/12/24 03:23:05;;;;;;;44.55;15.65;;;;;;;;;;4997817;28;20080;-64
2021/12/24 03:25:31;;;;;;;38.63;14.77;;;8.30;99.90;;;;;;4979442;28;20050;-64
2021/12/24 03:27:57;;;;;;;30.60;12.05;;;8.40;99.90;;;;;;4980011;28;20043;-64
2021/12/24 03:30:23;;;;;;;34.05;13.25;;;8.50;99.90;;;;;;4980065;28;20046;-64
2021/12/24 03:32:49;;;;;;;31.48;13.15;;;8.40;99.90;;;;;;4980009;28;20042;-64
2021/12/24 03:35:15;;;;;;;30.85;14.55;;;8.50;99.90;;;;;;4997363;28;20034;-64
2021/12/24 03:37:41;;;;;;;30.77;12.75;;;8.40;99.90;;;;;;4979920;28;20042;-64
2021/12/24 03:40:07;;;;;;;32.60;15.10;;;8.40;99.90;;;;;;4963735;28;20042;-64
2021/12/24 03:42:36;;;;;;;42.63;16.90;;;8.40;99.90;;;;;;4979355;28;20085;-64
2021/12/24 03:45:22;;;;;;;48.08;18.23;;;8.60;99.90;;;;;;4996093;28;20070;-64
2021/12/24 03:47:54;;;;;;;45.83;19.77;;;8.50;99.90;;;;;;4962584;28;20141;-64
2021/12/24 03:50:20;;;;;;;55.08;21.25;;;;;;;;;;4996334;28;20034;-64
2021/12/24 03:53:05;;;;;;;55.83;20.55;;;;;;;;;;4995518;28;20066;-64
2021/12/24 03:55:31;;;;;;;45.95;20.90;;;8.40;99.90;;;;;;4979114;28;20046;-64
2021/12/24 03:57:57;;;;;;;46.92;20.95;;;8.50;99.90;;;;;;4978439;28;20052;-64
2021/12/24 04:00:30;;;;;;;47.95;20.30;;;8.50;99.90;;;;;;4978396;28;20392;-64
2021/12/24 04:02:55;;;;;;;58.85;21.45;;;8.60;99.90;;;;;;4978652;28;20085;-64
2021/12/24 04:05:21;;;;;;;54.83;22.05;;;8.50;99.90;;;;;;4979049;28;20042;-64
2021/12/24 04:07:47;;;;;;;56.83;22.75;;;8.60;99.90;;;;;;4977988;28;20061;-64
2021/12/24 04:10:23;;;;;;;50.80;21.63;;;8.60;99.90;;;;;;4963343;28;20052;-64
2021/12/24 04:12:49;;;;;;;59.08;22.67;;;8.70;99.90;;;;;;4962627;28;20038;-64
2021/12/24 04:15:15;;;;;;;50.97;20.17;;;8.70;99.90;;;;;;4978020;28;20507;-64
2021/12/24 04:17:42;;;;;;;46.55;19.02;;;8.70;99.90;;;;;;4977913;28;20042;-64
2021/12/24 04:25:37;;;;;;;49.28;19.17;;;8.70;99.90;;;;;;4995972;28;20410;-64
2021/12/24 04:28:03;;;;;;;58.63;21.83;;;8.70;99.90;;;;;;4978248;28;20042;-64
2021/12/24 04:30:38;;;;;;;49.85;20.85;;;8.70;99.90;;;;;;4995821;28;20432;-64
2021/12/24 04:33:11;;;;;;;;;;;8.60;99.90;;;;;;4978646;28;20030;-64
2021/12/24 04:35:42;;;;;;;46.50;19.63;;;8.70;99.90;;;;;;4978481;28;19924;-64
2021/12/24 04:51:33;;;;;;;45.47;19.08;;;;;;;;;;4977849;28;20046;-64
2021/12/24 05:04:47;;;;;;;43.83;20.90;;;8.70;99.90;;;;;;4978362;28;20077;-64
2021/12/24 05:10:01;;;;;;;48.92;21.75;;;8.70;99.90;;;;;;4959311;28;20504;-64
2021/12/24 05:12:29;;;;;;;46.05;20.30;;;8.80;99.90;;;;;;4995886;28;20104;-64
2021/12/24 05:14:56;;;;;;;43.58;18.70;;;8.70;99.90;;;;;;4994838;28;20072;-64
2021/12/24 05:22:33;;;;;;;51.40;19.15;;;8.70;99.90;;;;;;4977808;28;20133;-64
2021/12/24 05:24:59;;;;;;;49.22;17.17;;;8.90;99.90;;;;;;4994137;28;20495;-64
2021/12/24 05:27:25;;;;;;;50.20;18.60;;;8.90;99.90;;;;;;4993655;28;20488;-64
2021/12/24 05:29:52;;;;;;;41.90;15.60;;;8.80;99.90;;;;;;4993670;28;20595;-64
2021/12/24 05:32:18;;;;;;;47.45;15.93;;;8.80;99.90;;;;;;4976375;28;20038;-64
2021/12/24 05:34:43;;;;;;;48.60;14.77;;;8.70;99.90;;;;;;4994010;28;20446;-64
2021/12/24 05:37:09;;;;;;;29.75;13.18;;;8.80;99.90;;;;;;4993743;28;20050;-64
2021/12/24 05:39:35;;;;;;;32.90;13.75;;;8.80;99.90;;;;;;4976228;28;20049;-64
2021/12/24 05:42:01;;;;;;;36.78;12.82;;;8.80;99.90;;;;;;4993555;28;20036;-65
2021/12/24 05:44:27;;;;;;;33.42;13.65;;;8.70;99.90;;;;;;4993775;28;20042;-64
2021/12/24 05:46:52;;;;;;;29.30;11.27;;;8.80;99.90;;;;;;4993887;28;20049;-64
2021/12/24 05:49:18;;;;;;;37.28;11.30;;;8.70;99.90;;;;;;4993376;28;20042;-64
2021/12/24 05:51:44;;;;;;;27.25;10.60;;;;;;;;;;4976970;28;20046;-64
2021/12/24 05:54:10;;;;;;;33.05;10.32;;;;;;;;;;4993977;28;20196;-64
2021/12/24 05:56:37;;;;;;;35.78;10.90;;;8.70;99.90;;;;;;4981671;28;20057;-65
2021/12/24 05:59:03;;;;;;;30.70;10.82;;;8.70;99.90;;;;;;4993754;28;20118;-64
2021/12/24 06:01:29;;;;;;;29.58;10.70;;;;;;;;;;4993867;28;20034;-64
2021/12/24 06:03:55;;;;;;;31.30;10.82;;;8.80;99.90;;;;;;4996675;28;20050;-64
2021/12/24 06:06:20;;;;;;;26.90;10.63;;;8.80;99.90;;;;;;4995975;28;20948;-65
2021/12/24 06:08:46;;;;;;;30.30;10.18;;;8.80;99.90;;;;;;4982836;28;20053;-64
2021/12/24 06:11:12;;;;;;;30.05;11.63;;;;;;;;;;4992932;28;20034;-65
2021/12/24 06:13:38;;;;;;;32.88;10.77;;;;;;;;;;4975779;28;20082;-64
2021/12/24 06:16:06;;;;;;;33.65;10.45;;;8.80;99.90;;;;;;4993164;28;20124;-64
2021/12/24 06:18:32;;;;;;;38.50;12.45;;;;;;;;;;4993732;28;20042;-64
2021/12/24 06:21:03;;;;;;;29.25;12.05;;;8.70;99.90;;;;;;4993302;28;20484;-64
2021/12/24 06:23:30;;;;;;;35.83;11.18;;;8.60;99.90;;;;;;4976241;28;20443;-65
2021/12/24 06:25:58;;;;;;;28.50;9.77;;;8.80;99.90;;;;;;4993098;28;20492;-65
2021/12/24 06:28:25;;;;;;;30.30;9.65;;;8.90;99.90;;;;;;4993053;28;20044;-64
2021/12/24 06:30:51;;;;;;;36.60;10.20;;;;;;;;;;4995028;28;20140;-65
2021/12/24 06:33:17;;;;;;;32.13;11.02;;;;;;;;;;4993405;28;20459;-65
2021/12/24 06:35:43;;;;;;;29.88;9.75;;;8.70;99.90;;;;;;4989208;28;20051;-65
2021/12/24 06:38:09;;;;;;;24.60;8.88;;;;;;;;;;4975599;28;20064;-64
2021/12/24 06:40:35;;;;;;;25.60;7.75;;;;;;;;;;4989767;28;20490;-64
2021/12/24 06:43:01;;;;;;;31.92;8.85;;;8.80;99.90;;;;;;4992823;28;20038;-64
2021/12/24 06:45:28;;;;;;;35.58;9.50;;;8.80;99.90;;;;;;4975176;28;20079;-63
2021/12/24 06:47:56;;;;;;;23.52;7.88;;;8.60;99.90;;;;;;4975653;28;20791;-64
2021/12/24 06:50:22;;;;;;;32.08;10.20;;;;;;;;;;4992543;28;20096;-64
2021/12/24 06:52:49;;;;;;;34.53;8.45;;;8.80;99.90;;;;;;4992738;28;20058;-65
2021/12/24 06:55:15;;;;;;;28.48;8.13;;;;;;;;;;4992760;28;20034;-65
2021/12/24 06:57:42;;;;;;;24.73;8.20;;;8.70;99.90;;;;;;4991687;28;20046;-64
2021/12/24 07:00:10;;;;;;;26.38;7.78;;;8.80;99.90;;;;;;4985563;28;20042;-64
2021/12/24 07:02:36;;;;;;;29.77;8.85;;;8.70;99.90;;;;;;4989408;28;20086;-64
2021/12/24 07:05:02;;;;;;;25.95;7.93;;;8.80;99.90;;;;;;4992622;28;20518;-64
2021/12/24 07:07:27;;;;;;;19.75;7.68;;;8.70;99.90;;;;;;4991957;28;20046;-64
2021/12/24 07:09:53;;;;;;;30.50;8.82;;;;;;;;;;4976490;28;20042;-64
2021/12/24 07:12:19;;;;;;;25.77;7.70;;;8.70;99.90;;;;;;4991438;28;20050;-64
2021/12/24 07:14:46;;;;;;;24.52;7.55;;;8.70;99.90;;;;;;4988587;28;20046;-64
2021/12/24 07:17:12;;;;;;;20.63;6.63;;;8.60;99.90;;;;;;4994871;28;20099;-64
2021/12/24 07:19:37;;;;;;;24.95;7.20;;;8.70;99.90;;;;;;4991872;28;20042;-64
2021/12/24 07:22:03;;;;;;;19.75;6.35;;;8.70;99.90;;;;;;4990310;28;20043;-64
2021/12/24 07:24:29;;;;;;;20.17;6.43;;;8.60;99.90;;;;;;4976658;28;20061;-64
2021/12/24 07:26:55;;;;;;;22.77;6.90;;;8.70;99.90;;;;;;4976215;28;20499;-64
2021/12/24 07:29:21;;;;;;;20.20;7.40;;;;;;;;;;4992722;28;20045;-65
2021/12/24 07:31:46;;;;;;;17.08;6.38;;;8.70;99.90;;;;;;4978393;28;20041;-64
2021/12/24 07:34:12;;;;;;;16.08;5.97;;;;;;;;;;5004790;28;20045;-64
2021/12/24 07:36:38;;;;;;;18.35;6.03;;;;;;;;;;4998773;28;20072;-65
2021/12/24 07:39:04;;;;;;;21.38;6.43;;;8.60;99.90;;;;;;4979871;28;20131;-65
2021/12/24 07:41:30;;;;;;;19.55;6.35;;;8.90;99.90;;;;;;4996883;28;20078;-64
2021/12/24 07:43:57;;;;;;;21.50;5.85;;;8.60;99.90;;;;;;4993649;28;20618;-69
2021/12/24 07:46:25;;;;;;;21.95;6.50;;;8.70;99.90;;;;;;4978454;28;20038;-68
2021/12/24 07:49:01;;;;;;;20.50;6.40;;;;;;;;;;4996176;28;20048;-67
2021/12/24 07:54:11;;;;;;;25.20;6.80;;;;;;;;;;4983611;28;20050;-67
2021/12/24 07:56:37;;;;;;;26.50;6.45;;;8.70;99.90;;;;;;4992746;28;20503;-68
2021/12/24 07:59:02;;;;;;;21.20;5.30;;;8.60;99.90;;;;;;4999089;28;20141;-67
2021/12/24 08:01:28;;;;;;;28.45;5.78;;;8.70;99.90;;;;;;4986685;28;20045;-67
2021/12/24 08:03:55;;;;;;;22.67;6.43;;;8.60;99.90;;;;;;5002594;28;20038;-67
2021/12/24 08:06:23;;;;;;;28.13;6.57;;;8.80;99.90;;;;;;4992121;28;20047;-67
2021/12/24 08:08:50;;;;;;;20.08;4.90;;;8.80;99.90;;;;;;5004833;28;20046;-67
2021/12/24 08:11:16;;;;;;;32.95;5.85;;;8.70;99.90;;;;;;5005665;28;20038;-67
2021/12/24 08:13:42;;;;;;;21.58;5.35;;;;;;;;;;5000464;28;20045;-68
2021/12/24 08:16:09;;;;;;;17.38;5.47;;;8.80;99.90;;;;;;4998494;28;20190;-69
2021/12/24 08:18:36;;;;;;;28.20;5.53;;;;;;;;;;4999678;28;20046;-70
2021/12/24 08:21:03;;;;;;;17.00;5.45;;;8.80;99.90;;;;;;4995411;28;20125;-69
2021/12/24 08:23:28;;;;;;;24.85;5.90;;;8.70;99.90;;;;;;4964686;28;20505;-69
2021/12/24 08:25:58;;;;;;;28.70;6.05;;;8.70;99.90;;;;;;4981289;28;20042;-68
2021/12/24 08:28:24;;;;;;;28.05;6.45;;;8.60;99.90;;;;;;5004627;28;20503;-68
2021/12/24 08:30:50;;;;;;;28.42;6.43;;;8.70;99.90;;;;;;4987349;28;20045;-70
2021/12/24 08:33:16;;;;;;;29.10;6.55;;;8.60;99.90;;;;;;4986915;28;20034;-69
2021/12/24 08:35:42;;;;;;;25.30;6.40;;;8.70;99.90;;;;;;5004347;28;20050;-70
2021/12/24 08:38:08;;;;;;;22.10;5.28;;;;;;;;;;4987667;28;20045;-70
2021/12/24 08:40:33;;;;;;;24.98;5.15;;;8.80;99.90;;;;;;4980056;28;20177;-67
2021/12/24 08:43:00;;;;;;;21.50;6.22;;;8.80;99.90;;;;;;4988525;28;20428;-67
2021/12/24 08:45:26;;;;;;;25.30;5.60;;;8.80;99.90;;;;;;4982775;28;20089;-67
2021/12/24 08:47:51;;;;;;;18.58;4.88;;;8.90;99.90;;;;;;4994969;28;20499;-67
2021/12/24 08:50:17;;;;;;;27.20;6.03;;;8.70;99.90;;;;;;4994290;28;20038;-66
2021/12/24 08:52:44;;;;;;;19.83;6.20;;;8.90;99.90;;;;;;4997877;28;20113;-69
2021/12/24 08:55:11;;;;;;;16.95;5.25;;;8.80;99.90;;;;;;4996241;28;20423;-69
2021/12/24 08:57:38;;;;;;;22.95;5.63;;;8.80;99.90;;;;;;4979583;28;20121;-68
2021/12/24 09:00:06;;;;;;;15.05;4.85;;;8.70;99.90;;;;;;5004404;28;20396;-67
2021/12/24 09:02:31;;;;;;;27.23;6.50;;;8.80;99.90;;;;;;4986497;28;20140;-68
2021/12/24 09:04:57;;;;;;;22.13;6.30;;;8.80;99.90;;;;;;5005605;28;20126;-65
2021/12/24 09:07:23;;;;;;;24.63;5.15;;;;;;;;;;4999682;28;20054;-67
2021/12/24 09:09:49;;;;;;;23.27;6.25;;;;;;;;;;4980232;28;20054;-65
2021/12/24 09:12:15;;;;;;;25.85;5.57;;;;;;;;;;5001151;28;20073;-66
2021/12/24 09:14:40;;;;;;;19.00;4.65;;;8.80;99.90;;;;;;4988734;28;20110;-65
2021/12/24 09:17:06;;;;;;;24.15;6.28;;;8.70;99.90;;;;;;4989220;28;20046;-64
2021/12/24 09:19:34;;;;;;;18.75;6.53;;;;;;;;;;4973410;28;20070;-65
2021/12/24 09:22:00;;;;;;;22.00;5.63;;;8.70;99.90;;;;;;4989644;28;20531;-65
2021/12/24 09:24:27;;;;;;;24.60;6.10;;;8.70;99.90;;;;;;4989609;28;20078;-65
2021/12/24 09:26:56;;;;;;;19.23;5.15;;;;;;;;;;4990799;28;20076;-65
2021/12/24 09:29:22;;;;;;;24.00;5.40;;;;;;;;;;4974256;28;20129;-66
2021/12/24 09:31:47;;;;;;;20.85;5.15;;;8.60;99.90;;;;;;4991598;28;20053;-65
2021/12/24 09:34:13;;;;;;;25.20;5.15;;;8.70;99.90;;;;;;4991090;28;20488;-65
2021/12/24 09:36:39;;;;;;;21.55;5.93;;;8.80;99.90;;;;;;4993046;28;20488;-65
2021/12/24 09:39:06;;;;;;;26.90;5.97;;;8.60;99.90;;;;;;4974171;28;20046;-66
2021/12/24 09:41:32;;;;;;;26.75;6.47;;;8.70;99.90;;;;;;4992131;28;20033;-65
2021/12/24 09:44:00;;;;;;;22.02;5.75;;;8.80;99.90;;;;;;4975901;28;20052;-65
2021/12/24 09:46:27;;;;;;;26.60;5.60;;;8.60;99.90;;;;;;4989566;28;20121;-65
2021/12/24 09:48:54;;;;;;;20.05;5.20;;;8.80;99.90;;;;;;4973405;28;20042;-65
2021/12/24 09:51:23;;;;;;;25.85;6.28;;;8.80;99.90;;;;;;4985243;28;20050;-65
2021/12/24 09:53:49;;;;;;;22.48;5.25;;;;;;;;;;4974033;28;20400;-65
2021/12/24 09:56:15;;;;;;;18.00;6.00;;;8.90;99.90;;;;;;4974767;28;20053;-65
2021/12/24 09:58:41;;;;;;;21.90;5.35;;;;;;;;;;4974899;28;20060;-64
2021/12/24 10:01:06;;;;;;;24.80;5.47;;;8.80;99.90;;;;;;4983750;28;20045;-65
2021/12/24 10:03:35;;;;;;;25.55;5.95;;;8.90;99.90;;;;;;4991411;28;20043;-65
2021/12/24 10:06:01;;;;;;;25.45;5.63;;;8.70;99.90;;;;;;4991426;28;20042;-65
2021/12/24 10:08:28;;;;;;;28.38;5.97;;;8.70;99.90;;;;;;4990556;28;20148;-66
2021/12/24 10:11:04;;;;;;;23.40;5.63;;;8.70;99.90;;;;;;4974717;28;20113;-67
2021/12/24 10:13:31;;;;;;;22.30;5.88;;;8.70;99.90;;;;;;4990704;28;20043;-65
2021/12/24 10:16:01;;;;;;;24.65;6.45;;;8.70;99.90;;;;;;4991394;28;20535;-66
2021/12/24 10:18:33;;;;;;;30.50;7.47;;;8.80;99.90;;;;;;4991398;28;20081;-65
2021/12/24 10:21:05;;;;;;;32.95;6.50;;;8.90;99.90;;;;;;4974974;28;20073;-64
2021/12/24 10:23:42;;;;;;;22.65;5.60;;;8.80;99.90;;;;;;4972691;28;21323;-65
2021/12/24 10:26:29;;;;;;;22.73;6.15;;;8.80;99.90;;;;;;4991489;28;20077;-66
2021/12/24 10:29:02;;;;;;;30.48;6.85;;;8.80;99.90;;;;;;4987795;28;20391;-67
2021/12/24 10:31:35;;;;;;;36.35;7.53;;;8.80;99.90;;;;;;4974334;28;20035;-65
2021/12/24 10:34:08;;;;;;;23.58;6.43;;;8.90;99.90;;;;;;4986937;28;20455;-66
2021/12/24 10:36:49;;;;;;;19.42;5.65;;;8.70;99.90;;;;;;4979240;28;20571;-66
2021/12/24 10:39:16;;;;;;;13.60;4.50;;;8.80;99.90;;;;;;4977480;28;20050;-66
2021/12/24 10:41:44;;;;;;;23.25;4.35;;;8.90;99.90;;;;;;4991463;28;20042;-65
2021/12/24 10:44:17;;;;;;;9.77;3.72;;;8.90;99.90;;;;;;4990027;28;20118;-66
2021/12/24 10:47:07;;;;;;;11.98;3.55;;;8.80;99.90;;;;;;4991450;28;20050;-66
2021/12/24 10:52:41;;;;;;;8.90;3.17;;;8.70;99.90;;;;;;4991708;28;20082;-65
2021/12/24 10:55:03;;;;;;;7.68;2.42;;;8.70;99.90;;;;;;4974210;28;20046;-65
2021/12/24 10:57:35;;;;;;;9.02;2.55;;;8.70;99.90;;;;;;4990465;28;20442;-65
2021/12/24 11:00:06;;;;;;;5.03;1.60;;;8.60;99.90;;;;;;4990040;28;20220;-64
2021/12/24 11:02:35;;;;;;;5.05;1.35;;;8.40;99.90;;;;;;4988490;28;20065;-65
2021/12/24 11:05:02;;;;;;;1.75;1.63;;;8.40;99.90;;;;;;4988879;28;20042;-65
2021/12/24 11:07:40;;;;;;;2.65;1.48;;;8.40;99.90;;;;;;4976222;28;20058;-66
2021/12/24 11:10:14;;;;;;;1.30;1.20;;;8.30;99.90;;;;;;4972616;28;20129;-66
2021/12/24 11:12:49;;;;;;;2.53;1.40;;;8.20;99.90;;;;;;4977094;28;20492;-65
2021/12/24 11:15:51;;;;;;;2.78;1.45;;;8.20;99.90;;;;;;4977142;28;20034;-65
2021/12/24 11:18:20;;;;;;;1.23;1.13;;;8.00;99.90;;;;;;4963238;28;20046;-64
2021/12/24 11:20:51;;;;;;;1.20;1.10;;;8.10;99.90;;;;;;4977469;28;20141;-66
2021/12/24 11:23:18;;;;;;;1.30;1.20;;;8.00;99.90;;;;;;4975892;28;20499;-67
2021/12/24 11:25:50;;;;;;;3.50;1.40;;;8.00;99.90;;;;;;4998106;28;20129;-66
2021/12/24 11:28:17;;;;;;;3.60;1.40;;;8.00;99.90;;;;;;4982601;28;20073;-66
2021/12/24 11:30:57;;;;;;;2.35;1.55;;;;;;;;;;5004723;28;20072;-67
2021/12/24 11:33:25;;;;;;;1.90;1.60;;;7.90;99.90;;;;;;4994755;28;20117;-65
2021/12/24 11:35:52;;;;;;;1.85;1.20;;;7.90;99.90;;;;;;5006179;28;20495;-66
2021/12/24 11:38:25;;;;;;;1.33;1.23;;;7.90;99.90;;;;;;4996750;28;20049;-66
2021/12/24 11:40:54;;;;;;;1.73;1.63;;;7.90;99.90;;;;;;4997305;28;20034;-66
2021/12/24 11:43:22;;;;;;;1.52;1.15;;;7.90;99.90;;;;;;5001705;28;20057;-66
2021/12/24 11:45:49;;;;;;;1.95;1.80;;;7.80;99.90;;;;;;4992497;28;20566;-67
2021/12/24 11:48:15;;;;;;;1.33;1.23;;;;;;;;;;4981652;28;20149;-65
2021/12/24 11:50:41;;;;;;;1.80;1.50;;;7.90;99.90;;;;;;4990420;28;20089;-65
2021/12/24 11:53:11;;;;;;;1.85;1.42;;;;;;;;;;4967813;28;20357;-64
2021/12/24 11:55:41;;;;;;;2.08;1.88;;;7.90;99.90;;;;;;4985398;28;20076;-66
2021/12/24 11:58:14;;;;;;;2.33;1.63;;;7.90;99.90;;;;;;4976064;28;20526;-66
2021/12/24 12:00:42;;;;;;;1.70;1.45;;;7.90;99.90;;;;;;4974822;28;20084;-68
2021/12/24 12:03:10;;;;;;;2.17;1.98;;;7.90;99.90;;;;;;4988534;28;20038;-68
2021/12/24 12:05:38;;;;;;;1.80;1.40;;;7.80;99.90;;;;;;4989905;28;20042;-66
2021/12/24 12:08:23;;;;;;;1.95;1.65;;;7.80;99.90;;;;;;4987612;28;20058;-68
2021/12/24 12:10:59;;;;;;;1.63;1.52;;;8.00;99.90;;;;;;4989725;28;20048;-69
2021/12/24 12:13:55;;;;;;;1.30;1.20;;;7.90;99.90;;;;;;4975436;28;20038;-69
2021/12/24 12:16:27;;;;;;;;;;;7.70;99.90;;;;;;4975432;28;20048;-68
2021/12/24 12:19:17;;;;;;;1.50;1.30;;;7.90;99.90;;;;;;4973917;28;20580;-66
2021/12/24 12:24:59;;;;;;;1.90;1.77;;;7.90;99.90;;;;;;4994170;28;20054;-68
2021/12/24 12:27:53;;;;;;;5.43;1.67;;;7.90;99.90;;;;;;4978010;28;20042;-68
2021/12/24 12:30:41;;;;;;;3.10;1.60;;;7.80;99.90;;;;;;4990982;28;20046;-68
2021/12/24 12:33:14;;;;;;;2.13;1.45;;;7.90;99.90;;;;;;4992783;28;20037;-67
2021/12/24 12:36:02;;;;;;;1.38;1.20;;;7.80;99.90;;;;;;4977984;28;20607;-70
2021/12/24 12:38:33;;;;;;;1.42;1.33;;;7.90;99.90;;;;;;4993508;28;20913;-66
2021/12/24 12:41:19;;;;;;;1.15;1.05;;;7.80;99.90;;;;;;4994245;28;20117;-69
2021/12/24 12:43:46;;;;;;;;;;;7.90;99.90;;;;;;4990559;28;20045;-69
2021/12/24 12:46:40;;;;;;;2.10;1.67;;;7.70;99.90;;;;;;4995280;28;19930;-68
2021/12/24 12:49:08;;;;;;;1.40;1.25;;;7.60;99.90;;;;;;4960397;28;20146;-69
2021/12/24 12:51:55;;;;;;;1.52;1.40;;;7.60;99.90;;;;;;4992933;28;20067;-69
2021/12/24 12:54:34;;;;;;;1.88;1.58;;;7.60;99.90;;;;;;4994450;28;20061;-69
2021/12/24 12:57:11;;;;;;;1.77;1.55;;;7.60;99.90;;;;;;4994667;28;20459;-68
2021/12/24 12:59:37;;;;;;;1.98;1.63;;;;;;;;;;4978302;28;20396;-68
2021/12/24 13:02:03;;;;;;;2.20;1.60;;;7.50;99.90;;;;;;4991079;28;20064;-69
2021/12/24 13:04:29;;;;;;;2.83;1.88;;;;;;;;;;4978017;28;20038;-68
2021/12/24 13:06:56;;;;;;;2.08;1.67;;;7.70;99.90;;;;;;4990568;28;20464;-67
2021/12/24 13:09:32;;;;;;;2.13;1.80;;;7.60;99.90;;;;;;4993522;28;20058;-68
2021/12/24 13:12:00;;;;;;;2.35;1.95;;;7.70;99.90;;;;;;4980106;28;20041;-67
2021/12/24 13:14:28;;;;;;;2.60;1.92;;;7.50;99.90;;;;;;4995776;28;20034;-66
2021/12/24 13:17:32;;;;;;;2.60;1.98;;;7.60;99.90;;;;;;4992246;28;20042;-67
2021/12/24 13:22:32;;;;;;;2.88;2.30;;;7.40;99.90;;;;;;4993138;28;20046;-68
2021/12/24 13:25:16;;;;;;;2.45;2.20;;;7.60;99.90;;;;;;4993812;28;20077;-69
2021/12/24 13:27:47;;;;;;;3.03;2.08;;;8.10;99.90;;;;;;4984180;28;20123;-69
2021/12/24 13:30:18;;;;;;;2.70;2.15;;;7.50;99.90;;;;;;4994995;28;20051;-66
2021/12/24 13:32:49;;;;;;;3.60;2.50;;;7.60;99.90;;;;;;4985456;28;20038;-66
2021/12/24 13:35:21;;;;;;;2.33;2.13;;;7.60;99.90;;;;;;4993117;28;20046;-65
2021/12/24 13:37:47;;;;;;;2.40;2.00;;;7.50;99.90;;;;;;4993059;28;20104;-65
2021/12/24 13:40:20;;;;;;;2.83;2.00;;;7.50;99.90;;;;;;4983405;28;20614;-64
2021/12/24 13:42:47;;;;;;;2.70;2.08;;;7.50;99.90;;;;;;4985571;28;20050;-69
2021/12/24 13:45:13;;;;;;;2.92;2.00;;;;;;;;;;5006119;28;20048;-72
2021/12/24 13:47:59;;;;;;;2.20;2.00;;;;;;;;;;4997325;28;20089;-70
2021/12/24 13:56:01;;;;;;;2.97;2.38;;;7.50;99.90;;;;;;4988301;28;20141;-68
2021/12/24 13:58:27;;;;;;;3.45;2.15;;;;;;;;;;4975213;28;20136;-69
2021/12/24 14:00:56;;;;;;;4.53;2.95;;;7.40;99.90;;;;;;4987362;28;20093;-69
2021/12/24 14:03:27;;;;;;;2.95;2.28;;;7.60;99.90;;;;;;4993910;28;20053;-67
2021/12/24 14:05:57;;;;;;;3.15;2.30;;;7.50;99.90;;;;;;4958486;28;20045;-67
2021/12/24 14:08:25;;;;;;;2.38;2.17;;;7.30;99.90;;;;;;4990168;28;20050;-66
2021/12/24 14:11:06;;;;;;;2.90;2.00;;;7.50;99.90;;;;;;4977759;28;20556;-67
2021/12/24 14:13:36;;;;;;;3.88;2.95;;;7.30;99.90;;;;;;4995159;28;20078;-67
2021/12/24 14:16:17;;;;;;;4.20;3.22;;;7.40;99.90;;;;;;4995112;28;20046;-71
2021/12/24 14:18:49;;;;;;;5.07;2.72;;;7.40;99.90;;;;;;4998110;28;20043;-68
2021/12/24 14:24:11;;;;;;;4.05;2.92;;;7.50;99.90;;;;;;4992023;28;20141;-64
2021/12/24 14:26:52;;;;;;;3.65;2.83;;;7.50;99.90;;;;;;4969434;28;20065;-67
2021/12/24 14:29:34;;;;;;;3.55;2.65;;;7.40;99.90;;;;;;4976820;28;20085;-66
2021/12/24 14:32:07;;;;;;;5.28;2.88;;;7.30;99.90;;;;;;4987740;28;20042;-67
2021/12/24 14:34:51;;;;;;;3.58;2.53;;;7.30;99.90;;;;;;4990069;28;20065;-67
2021/12/24 14:37:37;;;;;;;3.63;3.00;;;7.50;99.90;;;;;;4988418;28;20164;-66
2021/12/24 14:40:08;;;;;;;3.38;3.00;;;7.40;99.90;;;;;;4993879;28;20447;-65
2021/12/24 14:42:40;;;;;;;4.25;2.80;;;7.20;99.90;;;;;;4994208;28;20125;-66
2021/12/24 14:45:16;;;;;;;3.40;2.78;;;7.50;99.90;;;;;;4989847;28;20074;-66
2021/12/24 14:48:01;;;;;;;3.17;2.72;;;7.40;99.90;;;;;;5006967;28;20050;-66
2021/12/24 14:50:27;;;;;;;3.50;2.72;;;;;;;;;;4995276;28;20450;-65
2021/12/24 14:53:15;;;;;;;3.00;2.60;;;7.30;99.90;;;;;;5006517;28;20121;-67
2021/12/24 14:55:47;;;;;;;4.63;2.88;;;7.30;99.90;;;;;;4977245;28;20130;-65
2021/12/24 14:58:33;;;;;;;3.60;3.00;;;7.30;99.90;;;;;;4993638;28;20042;-68
2021/12/24 15:01:14;;;;;;;3.17;2.80;;;7.30;99.90;;;;;;4989306;28;20056;-68
2021/12/24 15:03:44;;;;;;;3.22;2.60;;;7.20;99.90;;;;;;4996601;28;20060;-67
2021/12/24 15:06:25;;;;;;;3.08;2.70;;;7.10;99.90;;;;;;4996079;28;20085;-67
2021/12/24 15:08:52;;;;;;;3.25;2.95;;;7.30;99.90;;;;;;4994821;28;20046;-65